sensor_id;sensor_type;location;lat;lon;timestamp;P1;durP1;ratioP1;P2;durP2;ratioP2
52067;SDS011;60237;52.338;21.228;2023-06-05T00:02:24;483.02;;;379.13;;
52067;SDS011;60237;52.338;21.228;2023-06-05T00:04:53;414.10;;;363.95;;
52067;SDS011;60237;52.338;21.228;2023-06-05T00:07:20;416.00;;;357.45;;
52067;SDS011;60237;52.338;21.228;2023-06-05T00:09:47;421.55;;;359.38;;
52067;SDS011;60237;52.338;21.228;2023-06-05T00:12:14;426.25;;;351.58;;
52067;SDS011;60237;52.338;21.228;2023-06-05T00:14:43;424.08;;;355.95;;
52067;SDS011;60237;52.338;21.228;2023-06-05T00:17:10;447.17;;;357.35;;
52067;SDS011;60237;52.338;21.228;2023-06-05T00:19:37;390.48;;;344.73;;
52067;SDS011;60237;52.338;21.228;2023-06-05T00:22:04;410.08;;;345.90;;
52067;SDS011;60237;52.338;21.228;2023-06-05T00:24:31;400.98;;;337.30;;
52067;SDS011;60237;52.338;21.228;2023-06-05T00:26:59;407.70;;;346.20;;
52067;SDS011;60237;52.338;21.228;2023-06-05T00:29:26;426.67;;;354.15;;
52067;SDS011;60237;52.338;21.228;2023-06-05T00:31:53;397.27;;;343.08;;
52067;SDS011;60237;52.338;21.228;2023-06-05T00:34:20;389.05;;;342.48;;
52067;SDS011;60237;52.338;21.228;2023-06-05T00:36:47;400.75;;;335.10;;
52067;SDS011;60237;52.338;21.228;2023-06-05T00:39:17;411.75;;;354.27;;
52067;SDS011;60237;52.338;21.228;2023-06-05T00:41:47;406.23;;;345.25;;
52067;SDS011;60237;52.338;21.228;2023-06-05T00:44:17;408.25;;;344.23;;
52067;SDS011;60237;52.338;21.228;2023-06-05T00:46:45;410.13;;;343.75;;
52067;SDS011;60237;52.338;21.228;2023-06-05T00:49:13;422.13;;;350.52;;
52067;SDS011;60237;52.338;21.228;2023-06-05T00:51:40;410.83;;;345.10;;
52067;SDS011;60237;52.338;21.228;2023-06-05T00:54:09;409.52;;;339.88;;
52067;SDS011;60237;52.338;21.228;2023-06-05T00:56:37;419.40;;;340.30;;
52067;SDS011;60237;52.338;21.228;2023-06-05T00:59:06;438.80;;;348.70;;
52067;SDS011;60237;52.338;21.228;2023-06-05T01:01:33;434.33;;;355.35;;
52067;SDS011;60237;52.338;21.228;2023-06-05T01:04:01;413.55;;;333.25;;
52067;SDS011;60237;52.338;21.228;2023-06-05T01:06:28;458.40;;;351.08;;
52067;SDS011;60237;52.338;21.228;2023-06-05T01:08:59;439.85;;;340.10;;
52067;SDS011;60237;52.338;21.228;2023-06-05T01:11:44;472.35;;;343.23;;
52067;SDS011;60237;52.338;21.228;2023-06-05T01:14:23;442.35;;;332.90;;
52067;SDS011;60237;52.338;21.228;2023-06-05T01:16:51;444.92;;;330.30;;
52067;SDS011;60237;52.338;21.228;2023-06-05T01:19:23;422.33;;;334.35;;
52067;SDS011;60237;52.338;21.228;2023-06-05T01:21:58;436.60;;;326.35;;
52067;SDS011;60237;52.338;21.228;2023-06-05T01:24:25;502.55;;;352.65;;
52067;SDS011;60237;52.338;21.228;2023-06-05T01:29:23;466.83;;;342.55;;
52067;SDS011;60237;52.338;21.228;2023-06-05T01:31:54;448.52;;;335.23;;
52067;SDS011;60237;52.338;21.228;2023-06-05T01:34:23;462.95;;;346.95;;
52067;SDS011;60237;52.338;21.228;2023-06-05T01:36:52;433.92;;;331.58;;
52067;SDS011;60237;52.338;21.228;2023-06-05T01:39:19;448.08;;;325.50;;
52067;SDS011;60237;52.338;21.228;2023-06-05T01:41:48;419.77;;;319.30;;
52067;SDS011;60237;52.338;21.228;2023-06-05T01:44:16;405.58;;;319.55;;
52067;SDS011;60237;52.338;21.228;2023-06-05T01:46:45;389.10;;;311.52;;
52067;SDS011;60237;52.338;21.228;2023-06-05T01:49:13;395.98;;;316.67;;
52067;SDS011;60237;52.338;21.228;2023-06-05T01:51:41;396.10;;;317.73;;
52067;SDS011;60237;52.338;21.228;2023-06-05T01:54:08;412.95;;;314.88;;
52067;SDS011;60237;52.338;21.228;2023-06-05T01:56:35;441.35;;;332.98;;
52067;SDS011;60237;52.338;21.228;2023-06-05T01:59:04;391.20;;;312.27;;
52067;SDS011;60237;52.338;21.228;2023-06-05T02:01:34;568.75;;;376.63;;
52067;SDS011;60237;52.338;21.228;2023-06-05T02:04:02;340.50;;;272.00;;
52067;SDS011;60237;52.338;21.228;2023-06-05T02:06:35;368.02;;;300.73;;
52067;SDS011;60237;52.338;21.228;2023-06-05T02:09:08;376.63;;;299.52;;
52067;SDS011;60237;52.338;21.228;2023-06-05T02:11:36;398.35;;;309.13;;
52067;SDS011;60237;52.338;21.228;2023-06-05T02:14:06;329.67;;;275.63;;
52067;SDS011;60237;52.338;21.228;2023-06-05T02:16:33;346.67;;;284.55;;
52067;SDS011;60237;52.338;21.228;2023-06-05T02:19:00;339.48;;;271.30;;
52067;SDS011;60237;52.338;21.228;2023-06-05T02:21:30;354.55;;;280.40;;
52067;SDS011;60237;52.338;21.228;2023-06-05T02:23:59;342.42;;;292.48;;
52067;SDS011;60237;52.338;21.228;2023-06-05T02:26:26;399.17;;;309.42;;
52067;SDS011;60237;52.338;21.228;2023-06-05T02:28:55;351.38;;;284.38;;
52067;SDS011;60237;52.338;21.228;2023-06-05T02:31:23;333.65;;;280.55;;
52067;SDS011;60237;52.338;21.228;2023-06-05T02:33:56;346.02;;;276.63;;
52067;SDS011;60237;52.338;21.228;2023-06-05T02:36:23;335.60;;;281.30;;
52067;SDS011;60237;52.338;21.228;2023-06-05T02:38:52;327.73;;;273.67;;
52067;SDS011;60237;52.338;21.228;2023-06-05T02:41:20;327.83;;;275.95;;
52067;SDS011;60237;52.338;21.228;2023-06-05T02:43:50;334.50;;;275.63;;
52067;SDS011;60237;52.338;21.228;2023-06-05T02:46:17;322.50;;;270.02;;
52067;SDS011;60237;52.338;21.228;2023-06-05T02:48:45;334.08;;;271.02;;
52067;SDS011;60237;52.338;21.228;2023-06-05T02:51:12;337.85;;;287.88;;
52067;SDS011;60237;52.338;21.228;2023-06-05T02:53:41;383.40;;;306.92;;
52067;SDS011;60237;52.338;21.228;2023-06-05T02:56:08;423.65;;;320.17;;
52067;SDS011;60237;52.338;21.228;2023-06-05T02:58:35;385.23;;;278.33;;
52067;SDS011;60237;52.338;21.228;2023-06-05T03:01:02;415.40;;;289.77;;
52067;SDS011;60237;52.338;21.228;2023-06-05T03:03:37;413.70;;;294.92;;
52067;SDS011;60237;52.338;21.228;2023-06-05T03:06:04;515.25;;;458.90;;
52067;SDS011;60237;52.338;21.228;2023-06-05T03:08:34;445.98;;;321.20;;
52067;SDS011;60237;52.338;21.228;2023-06-05T03:11:04;385.52;;;316.92;;
52067;SDS011;60237;52.338;21.228;2023-06-05T03:13:32;402.98;;;332.73;;
52067;SDS011;60237;52.338;21.228;2023-06-05T03:15:59;393.67;;;336.77;;
52067;SDS011;60237;52.338;21.228;2023-06-05T03:18:33;438.25;;;371.13;;
52067;SDS011;60237;52.338;21.228;2023-06-05T03:21:00;409.52;;;365.20;;
52067;SDS011;60237;52.338;21.228;2023-06-05T03:23:27;440.77;;;395.02;;
52067;SDS011;60237;52.338;21.228;2023-06-05T03:25:57;429.45;;;388.60;;
52067;SDS011;60237;52.338;21.228;2023-06-05T03:28:25;458.30;;;414.02;;
52067;SDS011;60237;52.338;21.228;2023-06-05T03:30:55;461.00;;;418.77;;
52067;SDS011;60237;52.338;21.228;2023-06-05T03:33:25;460.10;;;418.23;;
52067;SDS011;60237;52.338;21.228;2023-06-05T03:35:53;466.27;;;421.25;;
52067;SDS011;60237;52.338;21.228;2023-06-05T03:38:23;461.73;;;420.02;;
52067;SDS011;60237;52.338;21.228;2023-06-05T03:40:50;452.95;;;412.40;;
52067;SDS011;60237;52.338;21.228;2023-06-05T03:43:19;453.83;;;413.35;;
52067;SDS011;60237;52.338;21.228;2023-06-05T03:45:46;445.67;;;405.30;;
52067;SDS011;60237;52.338;21.228;2023-06-05T03:48:13;454.02;;;412.25;;
52067;SDS011;60237;52.338;21.228;2023-06-05T03:50:41;462.02;;;419.30;;
52067;SDS011;60237;52.338;21.228;2023-06-05T03:53:08;433.05;;;393.95;;
52067;SDS011;60237;52.338;21.228;2023-06-05T03:55:37;462.67;;;419.98;;
52067;SDS011;60237;52.338;21.228;2023-06-05T03:58:12;474.95;;;435.10;;
52067;SDS011;60237;52.338;21.228;2023-06-05T04:00:47;477.10;;;438.42;;
52067;SDS011;60237;52.338;21.228;2023-06-05T04:03:15;523.75;;;481.77;;
52067;SDS011;60237;52.338;21.228;2023-06-05T04:05:42;571.05;;;523.20;;
52067;SDS011;60237;52.338;21.228;2023-06-05T04:08:10;568.63;;;525.65;;
52067;SDS011;60237;52.338;21.228;2023-06-05T04:10:37;605.05;;;558.60;;
52067;SDS011;60237;52.338;21.228;2023-06-05T04:13:04;683.70;;;630.38;;
52067;SDS011;60237;52.338;21.228;2023-06-05T04:15:34;714.17;;;657.92;;
52067;SDS011;60237;52.338;21.228;2023-06-05T04:18:02;790.40;;;727.22;;
52067;SDS011;60237;52.338;21.228;2023-06-05T04:20:30;828.70;;;760.45;;
52067;SDS011;60237;52.338;21.228;2023-06-05T04:22:57;821.20;;;757.72;;
52067;SDS011;60237;52.338;21.228;2023-06-05T04:25:26;830.28;;;766.22;;
52067;SDS011;60237;52.338;21.228;2023-06-05T04:27:55;838.08;;;770.80;;
52067;SDS011;60237;52.338;21.228;2023-06-05T04:30:23;844.15;;;776.45;;
52067;SDS011;60237;52.338;21.228;2023-06-05T04:32:52;857.50;;;790.33;;
52067;SDS011;60237;52.338;21.228;2023-06-05T04:35:24;881.83;;;803.57;;
52067;SDS011;60237;52.338;21.228;2023-06-05T04:37:52;770.80;;;710.08;;
52067;SDS011;60237;52.338;21.228;2023-06-05T04:40:20;935.22;;;861.60;;
52067;SDS011;60237;52.338;21.228;2023-06-05T04:42:49;843.53;;;778.22;;
52067;SDS011;60237;52.338;21.228;2023-06-05T04:45:16;967.38;;;889.08;;
52067;SDS011;60237;52.338;21.228;2023-06-05T04:47:46;904.53;;;832.05;;
52067;SDS011;60237;52.338;21.228;2023-06-05T04:50:26;821.47;;;758.17;;
52067;SDS011;60237;52.338;21.228;2023-06-05T04:52:59;811.58;;;748.53;;
52067;SDS011;60237;52.338;21.228;2023-06-05T04:55:26;831.72;;;768.13;;
52067;SDS011;60237;52.338;21.228;2023-06-05T04:57:54;835.90;;;770.88;;
52067;SDS011;60237;52.338;21.228;2023-06-05T05:00:23;814.45;;;751.20;;
52067;SDS011;60237;52.338;21.228;2023-06-05T05:02:49;822.10;;;758.08;;
52067;SDS011;60237;52.338;21.228;2023-06-05T05:05:18;845.60;;;770.97;;
52067;SDS011;60237;52.338;21.228;2023-06-05T05:07:47;831.47;;;765.20;;
52067;SDS011;60237;52.338;21.228;2023-06-05T05:10:14;844.08;;;770.55;;
52067;SDS011;60237;52.338;21.228;2023-06-05T05:12:41;830.20;;;765.15;;
52067;SDS011;60237;52.338;21.228;2023-06-05T05:15:08;826.95;;;762.08;;
52067;SDS011;60237;52.338;21.228;2023-06-05T05:17:35;835.28;;;767.22;;
52067;SDS011;60237;52.338;21.228;2023-06-05T05:20:02;834.75;;;770.05;;
52067;SDS011;60237;52.338;21.228;2023-06-05T05:22:30;834.70;;;769.05;;
52067;SDS011;60237;52.338;21.228;2023-06-05T05:24:58;873.40;;;804.85;;
52067;SDS011;60237;52.338;21.228;2023-06-05T05:27:25;866.55;;;792.88;;
52067;SDS011;60237;52.338;21.228;2023-06-05T05:29:53;875.97;;;805.83;;
52067;SDS011;60237;52.338;21.228;2023-06-05T05:32:20;912.55;;;838.75;;
52067;SDS011;60237;52.338;21.228;2023-06-05T05:34:47;914.17;;;840.88;;
52067;SDS011;60237;52.338;21.228;2023-06-05T05:37:14;898.80;;;824.65;;
52067;SDS011;60237;52.338;21.228;2023-06-05T05:39:41;916.88;;;841.85;;
52067;SDS011;60237;52.338;21.228;2023-06-05T05:42:07;900.65;;;826.85;;
52067;SDS011;60237;52.338;21.228;2023-06-05T05:44:34;908.15;;;832.75;;
52067;SDS011;60237;52.338;21.228;2023-06-05T05:47:05;886.63;;;814.30;;
52067;SDS011;60237;52.338;21.228;2023-06-05T05:49:31;886.13;;;807.00;;
52067;SDS011;60237;52.338;21.228;2023-06-05T05:51:58;888.03;;;814.20;;
52067;SDS011;60237;52.338;21.228;2023-06-05T05:54:25;901.92;;;823.20;;
52067;SDS011;60237;52.338;21.228;2023-06-05T05:56:54;907.17;;;831.03;;
52067;SDS011;60237;52.338;21.228;2023-06-05T05:59:21;922.25;;;846.25;;
52067;SDS011;60237;52.338;21.228;2023-06-05T06:01:48;924.40;;;845.85;;
52067;SDS011;60237;52.338;21.228;2023-06-05T06:04:16;925.35;;;843.50;;
52067;SDS011;60237;52.338;21.228;2023-06-05T06:06:44;925.47;;;848.85;;
52067;SDS011;60237;52.338;21.228;2023-06-05T06:09:14;966.78;;;883.13;;
52067;SDS011;60237;52.338;21.228;2023-06-05T06:11:41;998.75;;;912.22;;
52067;SDS011;60237;52.338;21.228;2023-06-05T06:14:08;1025.65;;;940.60;;
52067;SDS011;60237;52.338;21.228;2023-06-05T06:16:37;1054.38;;;967.40;;
52067;SDS011;60237;52.338;21.228;2023-06-05T06:19:04;1079.75;;;986.38;;
52067;SDS011;60237;52.338;21.228;2023-06-05T06:21:31;1104.00;;;999.90;;
52067;SDS011;60237;52.338;21.228;2023-06-05T06:23:57;1101.15;;;981.88;;
52067;SDS011;60237;52.338;21.228;2023-06-05T06:26:24;1066.97;;;974.58;;
52067;SDS011;60237;52.338;21.228;2023-06-05T06:28:53;981.00;;;897.92;;
52067;SDS011;60237;52.338;21.228;2023-06-05T06:31:22;977.55;;;890.80;;
52067;SDS011;60237;52.338;21.228;2023-06-05T06:33:48;1035.50;;;947.00;;
52067;SDS011;60237;52.338;21.228;2023-06-05T06:36:15;1139.95;;;999.90;;
52067;SDS011;60237;52.338;21.228;2023-06-05T06:38:44;1205.25;;;999.90;;
52067;SDS011;60237;52.338;21.228;2023-06-05T06:41:11;1198.65;;;999.90;;
52067;SDS011;60237;52.338;21.228;2023-06-05T06:43:38;1194.85;;;999.90;;
52067;SDS011;60237;52.338;21.228;2023-06-05T06:46:06;1202.18;;;999.90;;
52067;SDS011;60237;52.338;21.228;2023-06-05T06:48:33;1212.68;;;999.90;;
52067;SDS011;60237;52.338;21.228;2023-06-05T06:51:00;1210.07;;;999.90;;
52067;SDS011;60237;52.338;21.228;2023-06-05T06:53:27;1209.38;;;999.90;;
52067;SDS011;60237;52.338;21.228;2023-06-05T06:55:54;1207.63;;;999.90;;
52067;SDS011;60237;52.338;21.228;2023-06-05T06:58:20;1211.15;;;999.90;;
52067;SDS011;60237;52.338;21.228;2023-06-05T07:00:47;1214.00;;;999.90;;
52067;SDS011;60237;52.338;21.228;2023-06-05T07:03:15;1215.25;;;999.90;;
52067;SDS011;60237;52.338;21.228;2023-06-05T07:05:42;1222.65;;;999.90;;
52067;SDS011;60237;52.338;21.228;2023-06-05T07:08:09;1216.78;;;999.90;;
52067;SDS011;60237;52.338;21.228;2023-06-05T07:10:36;1217.00;;;999.90;;
52067;SDS011;60237;52.338;21.228;2023-06-05T07:13:02;1214.10;;;999.90;;
52067;SDS011;60237;52.338;21.228;2023-06-05T07:15:29;1221.55;;;999.90;;
52067;SDS011;60237;52.338;21.228;2023-06-05T07:17:56;1236.25;;;999.90;;
52067;SDS011;60237;52.338;21.228;2023-06-05T07:20:23;1213.63;;;999.90;;
52067;SDS011;60237;52.338;21.228;2023-06-05T07:22:50;1196.80;;;999.90;;
52067;SDS011;60237;52.338;21.228;2023-06-05T07:25:16;1185.82;;;999.90;;
52067;SDS011;60237;52.338;21.228;2023-06-05T07:27:44;1191.88;;;999.90;;
52067;SDS011;60237;52.338;21.228;2023-06-05T07:30:11;1160.93;;;999.90;;
52067;SDS011;60237;52.338;21.228;2023-06-05T07:32:41;1173.82;;;999.90;;
52067;SDS011;60237;52.338;21.228;2023-06-05T07:35:09;1180.95;;;999.90;;
52067;SDS011;60237;52.338;21.228;2023-06-05T07:37:36;1206.80;;;999.90;;
52067;SDS011;60237;52.338;21.228;2023-06-05T07:40:03;1223.90;;;999.90;;
52067;SDS011;60237;52.338;21.228;2023-06-05T07:42:29;1225.50;;;999.90;;
52067;SDS011;60237;52.338;21.228;2023-06-05T07:44:56;1213.70;;;999.90;;
52067;SDS011;60237;52.338;21.228;2023-06-05T07:47:23;1202.38;;;999.90;;
52067;SDS011;60237;52.338;21.228;2023-06-05T07:49:58;1184.00;;;999.90;;
52067;SDS011;60237;52.338;21.228;2023-06-05T07:52:26;1170.93;;;999.90;;
52067;SDS011;60237;52.338;21.228;2023-06-05T07:54:53;1157.70;;;999.90;;
52067;SDS011;60237;52.338;21.228;2023-06-05T07:57:20;1153.70;;;999.90;;
52067;SDS011;60237;52.338;21.228;2023-06-05T07:59:47;1152.50;;;999.90;;
52067;SDS011;60237;52.338;21.228;2023-06-05T08:02:15;1126.45;;;999.90;;
52067;SDS011;60237;52.338;21.228;2023-06-05T08:04:43;1120.30;;;999.90;;
52067;SDS011;60237;52.338;21.228;2023-06-05T08:07:10;1114.72;;;999.90;;
52067;SDS011;60237;52.338;21.228;2023-06-05T08:09:37;1110.00;;;999.90;;
52067;SDS011;60237;52.338;21.228;2023-06-05T08:12:07;1106.28;;;999.90;;
52067;SDS011;60237;52.338;21.228;2023-06-05T08:14:34;1113.38;;;999.90;;
52067;SDS011;60237;52.338;21.228;2023-06-05T08:17:01;1095.50;;;998.35;;
52067;SDS011;60237;52.338;21.228;2023-06-05T08:19:28;1093.97;;;998.42;;
52067;SDS011;60237;52.338;21.228;2023-06-05T08:21:55;1087.00;;;993.67;;
52067;SDS011;60237;52.338;21.228;2023-06-05T08:24:23;1085.50;;;992.30;;
52067;SDS011;60237;52.338;21.228;2023-06-05T08:26:50;1074.97;;;982.80;;
52067;SDS011;60237;52.338;21.228;2023-06-05T08:29:16;1071.05;;;979.38;;
52067;SDS011;60237;52.338;21.228;2023-06-05T08:31:43;1064.03;;;974.55;;
52067;SDS011;60237;52.338;21.228;2023-06-05T08:34:10;1066.10;;;976.95;;
52067;SDS011;60237;52.338;21.228;2023-06-05T08:36:37;1055.25;;;968.40;;
52067;SDS011;60237;52.338;21.228;2023-06-05T08:39:04;1050.80;;;964.03;;
52067;SDS011;60237;52.338;21.228;2023-06-05T08:41:31;1066.43;;;976.03;;
52067;SDS011;60237;52.338;21.228;2023-06-05T08:43:58;1059.50;;;969.88;;
52067;SDS011;60237;52.338;21.228;2023-06-05T08:46:27;1059.03;;;971.33;;
52067;SDS011;60237;52.338;21.228;2023-06-05T08:48:55;1061.55;;;970.92;;
52067;SDS011;60237;52.338;21.228;2023-06-05T08:51:22;1059.07;;;969.60;;
52067;SDS011;60237;52.338;21.228;2023-06-05T08:53:54;1074.28;;;980.50;;
52067;SDS011;60237;52.338;21.228;2023-06-05T08:56:21;1068.45;;;976.70;;
52067;SDS011;60237;52.338;21.228;2023-06-05T08:58:48;1065.03;;;972.97;;
52067;SDS011;60237;52.338;21.228;2023-06-05T09:01:16;1071.75;;;980.53;;
52067;SDS011;60237;52.338;21.228;2023-06-05T09:03:43;1057.93;;;968.13;;
52067;SDS011;60237;52.338;21.228;2023-06-05T09:06:11;1063.53;;;972.40;;
52067;SDS011;60237;52.338;21.228;2023-06-05T09:08:38;1059.45;;;969.30;;
52067;SDS011;60237;52.338;21.228;2023-06-05T09:11:23;1049.18;;;963.25;;
52067;SDS011;60237;52.338;21.228;2023-06-05T09:13:50;1046.13;;;960.40;;
52067;SDS011;60237;52.338;21.228;2023-06-05T09:16:20;1053.30;;;964.38;;
52067;SDS011;60237;52.338;21.228;2023-06-05T09:18:51;1042.72;;;957.70;;
52067;SDS011;60237;52.338;21.228;2023-06-05T09:21:18;1034.07;;;950.40;;
52067;SDS011;60237;52.338;21.228;2023-06-05T09:23:45;1080.18;;;949.30;;
52067;SDS011;60237;52.338;21.228;2023-06-05T09:26:12;1030.47;;;947.13;;
52067;SDS011;60237;52.338;21.228;2023-06-05T09:28:54;1027.80;;;944.45;;
52067;SDS011;60237;52.338;21.228;2023-06-05T09:31:21;1047.45;;;941.83;;
52067;SDS011;60237;52.338;21.228;2023-06-05T09:33:54;1026.65;;;945.17;;
52067;SDS011;60237;52.338;21.228;2023-06-05T09:36:24;1018.65;;;937.53;;
52067;SDS011;60237;52.338;21.228;2023-06-05T09:38:52;1012.92;;;933.45;;
52067;SDS011;60237;52.338;21.228;2023-06-05T09:41:19;1018.00;;;937.15;;
52067;SDS011;60237;52.338;21.228;2023-06-05T09:43:46;996.40;;;918.35;;
52067;SDS011;60237;52.338;21.228;2023-06-05T09:46:17;998.85;;;920.67;;
52067;SDS011;60237;52.338;21.228;2023-06-05T09:48:49;1001.58;;;923.10;;
52067;SDS011;60237;52.338;21.228;2023-06-05T09:51:16;995.05;;;917.35;;
52067;SDS011;60237;52.338;21.228;2023-06-05T09:53:45;1002.55;;;918.33;;
52067;SDS011;60237;52.338;21.228;2023-06-05T09:56:13;987.28;;;910.80;;
52067;SDS011;60237;52.338;21.228;2023-06-05T09:58:44;985.30;;;908.35;;
52067;SDS011;60237;52.338;21.228;2023-06-05T10:01:19;981.22;;;904.97;;
52067;SDS011;60237;52.338;21.228;2023-06-05T10:03:54;985.97;;;909.42;;
52067;SDS011;60237;52.338;21.228;2023-06-05T10:06:23;982.03;;;904.97;;
52067;SDS011;60237;52.338;21.228;2023-06-05T10:08:50;991.65;;;913.83;;
52067;SDS011;60237;52.338;21.228;2023-06-05T10:11:19;983.45;;;906.25;;
52067;SDS011;60237;52.338;21.228;2023-06-05T10:13:47;995.28;;;917.03;;
52067;SDS011;60237;52.338;21.228;2023-06-05T10:16:19;987.03;;;910.20;;
52067;SDS011;60237;52.338;21.228;2023-06-05T10:18:52;996.70;;;913.28;;
52067;SDS011;60237;52.338;21.228;2023-06-05T10:21:20;996.72;;;918.33;;
52067;SDS011;60237;52.338;21.228;2023-06-05T10:29:33;991.75;;;908.30;;
52067;SDS011;60237;52.338;21.228;2023-06-05T10:32:12;971.47;;;896.45;;
52067;SDS011;60237;52.338;21.228;2023-06-05T10:35:01;971.80;;;896.63;;
52067;SDS011;60237;52.338;21.228;2023-06-05T10:40:17;984.08;;;907.33;;
52067;SDS011;60237;52.338;21.228;2023-06-05T10:42:44;979.88;;;903.13;;
52067;SDS011;60237;52.338;21.228;2023-06-05T10:45:11;980.20;;;903.65;;
52067;SDS011;60237;52.338;21.228;2023-06-05T10:52:47;981.40;;;905.33;;
52067;SDS011;60237;52.338;21.228;2023-06-05T10:55:14;981.30;;;905.38;;
52067;SDS011;60237;52.338;21.228;2023-06-05T10:58:03;990.97;;;912.78;;
52067;SDS011;60237;52.338;21.228;2023-06-05T11:00:30;1002.30;;;923.58;;
52067;SDS011;60237;52.338;21.228;2023-06-05T11:02:57;1008.95;;;928.03;;
52067;SDS011;60237;52.338;21.228;2023-06-05T11:05:27;1014.65;;;935.35;;
52067;SDS011;60237;52.338;21.228;2023-06-05T11:08:14;1016.20;;;935.95;;
52067;SDS011;60237;52.338;21.228;2023-06-05T11:13:50;1007.95;;;929.30;;
52067;SDS011;60237;52.338;21.228;2023-06-05T11:16:25;1019.03;;;938.33;;
52067;SDS011;60237;52.338;21.228;2023-06-05T11:18:51;1025.35;;;944.72;;
52067;SDS011;60237;52.338;21.228;2023-06-05T11:21:21;1029.28;;;948.00;;
52067;SDS011;60237;52.338;21.228;2023-06-05T11:26:40;1014.70;;;932.28;;
52067;SDS011;60237;52.338;21.228;2023-06-05T11:29:10;1016.28;;;932.35;;
52067;SDS011;60237;52.338;21.228;2023-06-05T11:31:37;1003.88;;;923.42;;
52067;SDS011;60237;52.338;21.228;2023-06-05T11:34:10;1014.65;;;933.75;;
52067;SDS011;60237;52.338;21.228;2023-06-05T11:36:37;1009.25;;;929.72;;
52067;SDS011;60237;52.338;21.228;2023-06-05T11:39:05;1017.80;;;936.65;;
52067;SDS011;60237;52.338;21.228;2023-06-05T11:41:32;1021.10;;;938.88;;
52067;SDS011;60237;52.338;21.228;2023-06-05T11:43:59;1031.50;;;948.25;;
52067;SDS011;60237;52.338;21.228;2023-06-05T11:46:35;1021.80;;;940.67;;
52067;SDS011;60237;52.338;21.228;2023-06-05T11:49:03;1025.75;;;943.25;;
52067;SDS011;60237;52.338;21.228;2023-06-05T11:51:34;1035.03;;;952.53;;
52067;SDS011;60237;52.338;21.228;2023-06-05T11:54:01;1038.95;;;957.28;;
52067;SDS011;60237;52.338;21.228;2023-06-05T11:56:28;1036.20;;;952.13;;
52067;SDS011;60237;52.338;21.228;2023-06-05T11:58:56;1039.43;;;957.28;;
52067;SDS011;60237;52.338;21.228;2023-06-05T12:01:23;1040.45;;;956.72;;
52067;SDS011;60237;52.338;21.228;2023-06-05T12:04:02;1047.90;;;959.45;;
52067;SDS011;60237;52.338;21.228;2023-06-05T12:06:29;1046.65;;;962.28;;
52067;SDS011;60237;52.338;21.228;2023-06-05T12:09:09;1044.90;;;956.83;;
52067;SDS011;60237;52.338;21.228;2023-06-05T12:11:40;1052.38;;;964.30;;
52067;SDS011;60237;52.338;21.228;2023-06-05T12:14:09;1042.53;;;957.60;;
52067;SDS011;60237;52.338;21.228;2023-06-05T12:16:37;1052.15;;;965.13;;
52067;SDS011;60237;52.338;21.228;2023-06-05T12:19:23;1055.43;;;967.13;;
52067;SDS011;60237;52.338;21.228;2023-06-05T12:21:49;1048.68;;;959.80;;
52067;SDS011;60237;52.338;21.228;2023-06-05T12:24:26;1060.18;;;962.75;;
52067;SDS011;60237;52.338;21.228;2023-06-05T12:26:53;1054.25;;;964.65;;
52067;SDS011;60237;52.338;21.228;2023-06-05T12:29:22;1052.68;;;964.63;;
52067;SDS011;60237;52.338;21.228;2023-06-05T12:31:49;1062.10;;;972.70;;
52067;SDS011;60237;52.338;21.228;2023-06-05T12:34:16;1048.85;;;963.42;;
52067;SDS011;60237;52.338;21.228;2023-06-05T12:36:43;1029.80;;;948.13;;
52067;SDS011;60237;52.338;21.228;2023-06-05T12:39:10;1029.88;;;946.55;;
52067;SDS011;60237;52.338;21.228;2023-06-05T12:41:37;1036.82;;;951.25;;
52067;SDS011;60237;52.338;21.228;2023-06-05T12:44:04;1016.45;;;936.05;;
52067;SDS011;60237;52.338;21.228;2023-06-05T12:46:33;1024.95;;;941.90;;
52067;SDS011;60237;52.338;21.228;2023-06-05T12:49:00;1044.35;;;959.88;;
52067;SDS011;60237;52.338;21.228;2023-06-05T12:51:27;1033.97;;;950.00;;
52067;SDS011;60237;52.338;21.228;2023-06-05T12:53:54;1039.65;;;954.88;;
52067;SDS011;60237;52.338;21.228;2023-06-05T12:56:25;1045.22;;;959.22;;
52067;SDS011;60237;52.338;21.228;2023-06-05T12:58:54;1035.22;;;949.83;;
52067;SDS011;60237;52.338;21.228;2023-06-05T13:01:22;1043.63;;;951.30;;
52067;SDS011;60237;52.338;21.228;2023-06-05T13:03:49;1041.90;;;956.42;;
52067;SDS011;60237;52.338;21.228;2023-06-05T13:06:16;1045.47;;;959.35;;
52067;SDS011;60237;52.338;21.228;2023-06-05T13:08:43;1053.45;;;964.45;;
52067;SDS011;60237;52.338;21.228;2023-06-05T13:11:11;1046.38;;;961.03;;
52067;SDS011;60237;52.338;21.228;2023-06-05T13:13:37;1047.88;;;960.80;;
52067;SDS011;60237;52.338;21.228;2023-06-05T13:16:04;1049.75;;;959.90;;
52067;SDS011;60237;52.338;21.228;2023-06-05T13:18:35;1046.55;;;959.75;;
52067;SDS011;60237;52.338;21.228;2023-06-05T13:21:03;1044.40;;;957.08;;
52067;SDS011;60237;52.338;21.228;2023-06-05T13:23:30;1049.43;;;963.42;;
52067;SDS011;60237;52.338;21.228;2023-06-05T13:25:59;1052.97;;;966.03;;
52067;SDS011;60237;52.338;21.228;2023-06-05T13:28:25;1061.30;;;970.13;;
52067;SDS011;60237;52.338;21.228;2023-06-05T13:30:52;1057.68;;;967.83;;
52067;SDS011;60237;52.338;21.228;2023-06-05T13:33:20;1056.47;;;966.10;;
52067;SDS011;60237;52.338;21.228;2023-06-05T13:35:46;1069.38;;;976.55;;
52067;SDS011;60237;52.338;21.228;2023-06-05T13:38:13;1057.88;;;966.67;;
52067;SDS011;60237;52.338;21.228;2023-06-05T13:40:41;1060.82;;;972.20;;
52067;SDS011;60237;52.338;21.228;2023-06-05T13:43:09;1059.95;;;969.78;;
52067;SDS011;60237;52.338;21.228;2023-06-05T13:45:37;1066.25;;;976.22;;
52067;SDS011;60237;52.338;21.228;2023-06-05T13:48:04;1060.22;;;971.03;;
52067;SDS011;60237;52.338;21.228;2023-06-05T13:50:31;1060.63;;;971.58;;
52067;SDS011;60237;52.338;21.228;2023-06-05T13:52:58;1052.30;;;962.67;;
52067;SDS011;60237;52.338;21.228;2023-06-05T13:55:25;1051.95;;;962.85;;
52067;SDS011;60237;52.338;21.228;2023-06-05T13:57:51;1048.82;;;960.50;;
52067;SDS011;60237;52.338;21.228;2023-06-05T14:00:18;1055.50;;;964.10;;
52067;SDS011;60237;52.338;21.228;2023-06-05T14:02:45;1059.15;;;965.72;;
52067;SDS011;60237;52.338;21.228;2023-06-05T14:05:13;1050.43;;;962.03;;
52067;SDS011;60237;52.338;21.228;2023-06-05T14:07:40;1047.53;;;960.80;;
52067;SDS011;60237;52.338;21.228;2023-06-05T14:10:13;1038.18;;;954.15;;